< < Back
Terminal Aerodrome Forecast


Current Version              Previous Versions:   1  2  3  4  5  6  7  8  9  

Terminal Aerodrome Forecast

491
FTUS44 KBMX 220900 AAA
TAFTCL
TAF AMD
KTCL 220934Z 2210/2306 00000KT P6SM BKN014
     FM221200 09005KT P6SM VCSH BKN035=

Latest METAR

532
SAUS70 KWBC 222100 RRJ
MTRTCL
METAR KTCL 222053Z 34004KT 10SM CLR 29/23 A3004 RMK AO2 TSB19E39RAB05E30
SLP170 P0000 60000 T02940228 56013


USA.gov is the U.S. government's official web portal to all federal, state and local government web resources and services.